sensor_id;sensor_type;location;lat;lon;timestamp;temperature;humidity
9265;DHT22;4669;49.594;10.958;2024-02-26T05:26:41;5.20;99.90
9265;DHT22;4669;49.594;10.958;2024-02-26T05:31:43;5.20;99.90
9265;DHT22;4669;49.594;10.958;2024-02-26T05:36:45;5.20;99.90
9265;DHT22;4669;49.594;10.958;2024-02-26T05:41:49;5.30;99.90
9265;DHT22;4669;49.594;10.958;2024-02-26T05:46:51;5.30;99.90
9265;DHT22;4669;49.594;10.958;2024-02-26T05:51:53;5.20;99.90
9265;DHT22;4669;49.594;10.958;2024-02-26T05:56:57;5.20;99.90
9265;DHT22;4669;49.594;10.958;2024-02-26T06:01:59;5.20;99.90
9265;DHT22;4669;49.594;10.958;2024-02-26T06:07:01;5.20;99.90
9265;DHT22;4669;49.594;10.958;2024-02-26T06:12:06;5.20;99.90
9265;DHT22;4669;49.594;10.958;2024-02-26T06:17:08;5.30;99.90
9265;DHT22;4669;49.594;10.958;2024-02-26T06:22:10;5.30;99.90
9265;DHT22;4669;49.594;10.958;2024-02-26T06:27:13;5.30;99.90
9265;DHT22;4669;49.594;10.958;2024-02-26T06:32:15;5.20;99.90
9265;DHT22;4669;49.594;10.958;2024-02-26T06:37:18;5.30;99.90
9265;DHT22;4669;49.594;10.958;2024-02-26T06:42:21;5.30;99.90
9265;DHT22;4669;49.594;10.958;2024-02-26T06:47:23;5.40;99.90
9265;DHT22;4669;49.594;10.958;2024-02-26T06:52:26;5.40;99.90
9265;DHT22;4669;49.594;10.958;2024-02-26T06:57:30;5.50;99.90
9265;DHT22;4669;49.594;10.958;2024-02-26T07:02:32;5.50;99.90
9265;DHT22;4669;49.594;10.958;2024-02-26T07:07:34;5.50;99.90
9265;DHT22;4669;49.594;10.958;2024-02-26T07:12:38;5.60;99.90
9265;DHT22;4669;49.594;10.958;2024-02-26T07:17:40;5.80;99.90
9265;DHT22;4669;49.594;10.958;2024-02-26T07:22:47;5.90;99.90
9265;DHT22;4669;49.594;10.958;2024-02-26T07:27:51;5.90;99.90
9265;DHT22;4669;49.594;10.958;2024-02-26T07:32:53;5.90;99.90
9265;DHT22;4669;49.594;10.958;2024-02-26T07:37:55;5.90;99.90
9265;DHT22;4669;49.594;10.958;2024-02-26T07:42:58;5.90;99.90
9265;DHT22;4669;49.594;10.958;2024-02-26T07:48:00;5.90;99.90
9265;DHT22;4669;49.594;10.958;2024-02-26T07:53:02;6.00;99.90
9265;DHT22;4669;49.594;10.958;2024-02-26T07:58:06;6.10;99.90
9265;DHT22;4669;49.594;10.958;2024-02-26T08:03:08;6.20;99.90
9265;DHT22;4669;49.594;10.958;2024-02-26T08:08:10;6.30;99.90
9265;DHT22;4669;49.594;10.958;2024-02-26T08:13:13;6.30;99.90
9265;DHT22;4669;49.594;10.958;2024-02-26T08:18:15;6.40;99.90
9265;DHT22;4669;49.594;10.958;2024-02-26T08:23:18;6.40;99.90
9265;DHT22;4669;49.594;10.958;2024-02-26T08:28:21;6.40;99.90
9265;DHT22;4669;49.594;10.958;2024-02-26T08:33:23;6.40;99.90
9265;DHT22;4669;49.594;10.958;2024-02-26T08:38:26;6.50;99.90
9265;DHT22;4669;49.594;10.958;2024-02-26T08:43:29;6.50;99.90
9265;DHT22;4669;49.594;10.958;2024-02-26T08:48:31;6.50;99.90
9265;DHT22;4669;49.594;10.958;2024-02-26T08:53:34;6.60;99.90
9265;DHT22;4669;49.594;10.958;2024-02-26T08:58:37;6.70;99.90
9265;DHT22;4669;49.594;10.958;2024-02-26T09:03:39;6.90;99.90
9265;DHT22;4669;49.594;10.958;2024-02-26T09:08:41;6.90;99.90
9265;DHT22;4669;49.594;10.958;2024-02-26T09:13:45;6.90;99.90
9265;DHT22;4669;49.594;10.958;2024-02-26T09:18:47;7.00;99.90
9265;DHT22;4669;49.594;10.958;2024-02-26T09:23:49;7.00;99.90
9265;DHT22;4669;49.594;10.958;2024-02-26T09:28:52;7.10;99.90
9265;DHT22;4669;49.594;10.958;2024-02-26T09:33:54;7.10;99.90
9265;DHT22;4669;49.594;10.958;2024-02-26T09:38:56;7.10;99.90
9265;DHT22;4669;49.594;10.958;2024-02-26T09:44:02;7.30;99.90
9265;DHT22;4669;49.594;10.958;2024-02-26T09:49:06;7.40;99.90
9265;DHT22;4669;49.594;10.958;2024-02-26T09:54:10;7.50;99.90
9265;DHT22;4669;49.594;10.958;2024-02-26T09:59:17;7.60;99.90
9265;DHT22;4669;49.594;10.958;2024-02-26T10:04:19;7.80;99.90
9265;DHT22;4669;49.594;10.958;2024-02-26T10:09:22;7.70;99.90
9265;DHT22;4669;49.594;10.958;2024-02-26T10:14:26;7.60;99.90
9265;DHT22;4669;49.594;10.958;2024-02-26T10:19:29;7.60;99.90
9265;DHT22;4669;49.594;10.958;2024-02-26T10:24:31;7.70;99.90
9265;DHT22;4669;49.594;10.958;2024-02-26T10:29:36;7.80;99.90
9265;DHT22;4669;49.594;10.958;2024-02-26T10:34:40;8.00;99.90
9265;DHT22;4669;49.594;10.958;2024-02-26T10:39:46;8.10;99.90
9265;DHT22;4669;49.594;10.958;2024-02-26T10:44:50;8.10;99.90
9265;DHT22;4669;49.594;10.958;2024-02-26T10:49:52;8.10;99.90
9265;DHT22;4669;49.594;10.958;2024-02-26T10:54:56;8.10;99.90
9265;DHT22;4669;49.594;10.958;2024-02-26T11:00:01;8.20;99.90
9265;DHT22;4669;49.594;10.958;2024-02-26T11:05:06;8.20;99.90
9265;DHT22;4669;49.594;10.958;2024-02-26T11:10:09;8.30;99.90
9265;DHT22;4669;49.594;10.958;2024-02-26T11:15:15;8.40;99.90
9265;DHT22;4669;49.594;10.958;2024-02-26T11:20:19;8.50;99.90
9265;DHT22;4669;49.594;10.958;2024-02-26T11:25:21;8.40;99.90
9265;DHT22;4669;49.594;10.958;2024-02-26T11:30:26;8.40;99.90
9265;DHT22;4669;49.594;10.958;2024-02-26T11:35:30;8.40;99.90
9265;DHT22;4669;49.594;10.958;2024-02-26T11:40:33;8.40;99.90
9265;DHT22;4669;49.594;10.958;2024-02-26T11:45:54;8.50;99.90
9265;DHT22;4669;49.594;10.958;2024-02-26T11:51:00;8.60;99.90
9265;DHT22;4669;49.594;10.958;2024-02-26T11:56:22;8.80;99.90
9265;DHT22;4669;49.594;10.958;2024-02-26T12:01:42;8.90;99.90
9265;DHT22;4669;49.594;10.958;2024-02-26T12:06:50;9.00;99.90
9265;DHT22;4669;49.594;10.958;2024-02-26T12:11:55;9.20;99.90
9265;DHT22;4669;49.594;10.958;2024-02-26T12:16:59;9.30;99.90
9265;DHT22;4669;49.594;10.958;2024-02-26T12:22:02;9.30;99.90
9265;DHT22;4669;49.594;10.958;2024-02-26T12:27:04;9.60;99.90
9265;DHT22;4669;49.594;10.958;2024-02-26T12:32:08;9.70;99.90
9265;DHT22;4669;49.594;10.958;2024-02-26T12:37:11;9.80;99.90
9265;DHT22;4669;49.594;10.958;2024-02-26T12:42:14;9.90;99.90
9265;DHT22;4669;49.594;10.958;2024-02-26T12:47:17;10.10;99.90
9265;DHT22;4669;49.594;10.958;2024-02-26T12:52:20;10.20;99.60
9265;DHT22;4669;49.594;10.958;2024-02-26T12:57:22;10.30;99.40
9265;DHT22;4669;49.594;10.958;2024-02-26T13:02:27;10.30;99.40
9265;DHT22;4669;49.594;10.958;2024-02-26T13:07:29;10.50;98.90
9265;DHT22;4669;49.594;10.958;2024-02-26T13:12:32;10.50;98.90
9265;DHT22;4669;49.594;10.958;2024-02-26T13:17:35;10.70;98.10
9265;DHT22;4669;49.594;10.958;2024-02-26T13:22:38;10.60;99.20
9265;DHT22;4669;49.594;10.958;2024-02-26T13:27:40;10.80;98.80
9265;DHT22;4669;49.594;10.958;2024-02-26T13:32:43;10.90;98.10
9265;DHT22;4669;49.594;10.958;2024-02-26T13:37:47;10.90;98.00
9265;DHT22;4669;49.594;10.958;2024-02-26T13:42:49;10.90;98.30
9265;DHT22;4669;49.594;10.958;2024-02-26T13:47:54;10.90;98.10
9265;DHT22;4669;49.594;10.958;2024-02-26T13:53:02;11.00;97.80
9265;DHT22;4669;49.594;10.958;2024-02-26T13:58:05;11.10;97.40
9265;DHT22;4669;49.594;10.958;2024-02-26T14:03:09;11.00;96.80
9265;DHT22;4669;49.594;10.958;2024-02-26T14:08:11;10.90;96.30
9265;DHT22;4669;49.594;10.958;2024-02-26T14:13:13;10.70;96.70
9265;DHT22;4669;49.594;10.958;2024-02-26T14:18:16;10.60;97.10
9265;DHT22;4669;49.594;10.958;2024-02-26T14:23:18;10.60;97.60
9265;DHT22;4669;49.594;10.958;2024-02-26T14:28:20;10.70;96.80
9265;DHT22;4669;49.594;10.958;2024-02-26T14:33:26;10.70;96.00
9265;DHT22;4669;49.594;10.958;2024-02-26T14:38:28;10.60;96.70
9265;DHT22;4669;49.594;10.958;2024-02-26T14:43:31;10.60;96.70
9265;DHT22;4669;49.594;10.958;2024-02-26T14:48:37;10.40;97.00
9265;DHT22;4669;49.594;10.958;2024-02-26T14:53:39;10.30;97.10
9265;DHT22;4669;49.594;10.958;2024-02-26T14:58:41;10.20;96.80
9265;DHT22;4669;49.594;10.958;2024-02-26T15:03:44;10.20;96.60
9265;DHT22;4669;49.594;10.958;2024-02-26T15:08:47;10.30;96.70
9265;DHT22;4669;49.594;10.958;2024-02-26T15:13:49;10.10;96.90
9265;DHT22;4669;49.594;10.958;2024-02-26T15:18:52;10.10;97.40
9265;DHT22;4669;49.594;10.958;2024-02-26T15:23:55;10.00;97.40
9265;DHT22;4669;49.594;10.958;2024-02-26T15:28:57;9.90;97.60
9265;DHT22;4669;49.594;10.958;2024-02-26T15:34:00;10.10;97.20
9265;DHT22;4669;49.594;10.958;2024-02-26T15:39:02;10.10;96.80
9265;DHT22;4669;49.594;10.958;2024-02-26T15:44:06;10.10;97.00
9265;DHT22;4669;49.594;10.958;2024-02-26T15:49:09;10.00;97.20
9265;DHT22;4669;49.594;10.958;2024-02-26T15:54:12;10.00;97.70
9265;DHT22;4669;49.594;10.958;2024-02-26T15:59:14;9.90;98.40
9265;DHT22;4669;49.594;10.958;2024-02-26T16:04:17;9.70;99.20
9265;DHT22;4669;49.594;10.958;2024-02-26T16:09:20;9.60;99.80
9265;DHT22;4669;49.594;10.958;2024-02-26T16:14:41;9.50;99.90
9265;DHT22;4669;49.594;10.958;2024-02-26T16:19:45;9.50;99.90
9265;DHT22;4669;49.594;10.958;2024-02-26T16:24:47;9.50;99.90
9265;DHT22;4669;49.594;10.958;2024-02-26T16:29:49;9.50;99.90
9265;DHT22;4669;49.594;10.958;2024-02-26T16:34:53;9.40;99.90
9265;DHT22;4669;49.594;10.958;2024-02-26T16:39:58;9.40;99.90
9265;DHT22;4669;49.594;10.958;2024-02-26T16:45:00;9.40;99.90
9265;DHT22;4669;49.594;10.958;2024-02-26T16:50:06;9.40;99.90
9265;DHT22;4669;49.594;10.958;2024-02-26T16:55:09;9.30;99.90
9265;DHT22;4669;49.594;10.958;2024-02-26T17:00:12;9.30;99.90
9265;DHT22;4669;49.594;10.958;2024-02-26T17:05:18;9.30;99.90
9265;DHT22;4669;49.594;10.958;2024-02-26T17:10:20;9.30;99.90
9265;DHT22;4669;49.594;10.958;2024-02-26T17:15:22;9.20;99.90
9265;DHT22;4669;49.594;10.958;2024-02-26T17:20:25;9.30;99.90
9265;DHT22;4669;49.594;10.958;2024-02-26T17:25:27;9.20;99.90
9265;DHT22;4669;49.594;10.958;2024-02-26T17:30:29;9.10;99.90
9265;DHT22;4669;49.594;10.958;2024-02-26T17:35:33;9.10;99.90
9265;DHT22;4669;49.594;10.958;2024-02-26T17:40:36;9.00;99.90
9265;DHT22;4669;49.594;10.958;2024-02-26T17:45:38;9.00;99.90
9265;DHT22;4669;49.594;10.958;2024-02-26T17:50:41;9.00;99.90
9265;DHT22;4669;49.594;10.958;2024-02-26T17:55:43;9.00;99.90
9265;DHT22;4669;49.594;10.958;2024-02-26T18:00:45;9.00;99.90
9265;DHT22;4669;49.594;10.958;2024-02-26T18:05:49;9.00;99.90
9265;DHT22;4669;49.594;10.958;2024-02-26T18:10:51;9.00;99.90
9265;DHT22;4669;49.594;10.958;2024-02-26T18:15:53;9.00;99.90
9265;DHT22;4669;49.594;10.958;2024-02-26T18:20:59;9.10;99.90
9265;DHT22;4669;49.594;10.958;2024-02-26T18:26:01;9.00;99.90
9265;DHT22;4669;49.594;10.958;2024-02-26T18:31:04;9.00;99.90
9265;DHT22;4669;49.594;10.958;2024-02-26T18:36:08;8.90;99.90
9265;DHT22;4669;49.594;10.958;2024-02-26T18:41:17;8.90;99.90
9265;DHT22;4669;49.594;10.958;2024-02-26T18:46:20;8.90;99.90
9265;DHT22;4669;49.594;10.958;2024-02-26T18:51:24;9.00;99.90
9265;DHT22;4669;49.594;10.958;2024-02-26T18:56:26;9.00;99.90
9265;DHT22;4669;49.594;10.958;2024-02-26T19:01:28;8.90;99.90
9265;DHT22;4669;49.594;10.958;2024-02-26T19:06:31;8.90;99.90
9265;DHT22;4669;49.594;10.958;2024-02-26T19:11:36;8.90;99.90
9265;DHT22;4669;49.594;10.958;2024-02-26T19:16:39;8.90;99.90
9265;DHT22;4669;49.594;10.958;2024-02-26T19:21:42;8.90;99.90
9265;DHT22;4669;49.594;10.958;2024-02-26T19:26:44;8.80;99.90
9265;DHT22;4669;49.594;10.958;2024-02-26T19:31:46;8.80;99.90
9265;DHT22;4669;49.594;10.958;2024-02-26T19:36:50;8.90;99.90
9265;DHT22;4669;49.594;10.958;2024-02-26T19:41:56;8.80;99.90
9265;DHT22;4669;49.594;10.958;2024-02-26T19:46:58;8.70;99.90
9265;DHT22;4669;49.594;10.958;2024-02-26T19:52:01;8.70;99.90
9265;DHT22;4669;49.594;10.958;2024-02-26T19:57:04;8.60;99.90
9265;DHT22;4669;49.594;10.958;2024-02-26T20:02:07;8.60;99.90
9265;DHT22;4669;49.594;10.958;2024-02-26T20:07:12;8.60;99.90
9265;DHT22;4669;49.594;10.958;2024-02-26T20:12:14;8.50;99.90
9265;DHT22;4669;49.594;10.958;2024-02-26T20:17:17;8.50;99.90
9265;DHT22;4669;49.594;10.958;2024-02-26T20:22:22;8.50;99.90
9265;DHT22;4669;49.594;10.958;2024-02-26T20:27:24;8.50;99.90
9265;DHT22;4669;49.594;10.958;2024-02-26T20:32:27;8.50;99.90
9265;DHT22;4669;49.594;10.958;2024-02-26T20:37:31;8.50;99.90
9265;DHT22;4669;49.594;10.958;2024-02-26T20:42:33;8.40;99.90
9265;DHT22;4669;49.594;10.958;2024-02-26T20:47:35;8.40;99.90
9265;DHT22;4669;49.594;10.958;2024-02-26T20:52:38;8.40;99.90
9265;DHT22;4669;49.594;10.958;2024-02-26T20:57:40;8.40;99.90
9265;DHT22;4669;49.594;10.958;2024-02-26T21:02:42;8.40;99.90
9265;DHT22;4669;49.594;10.958;2024-02-26T21:07:46;8.40;99.90
9265;DHT22;4669;49.594;10.958;2024-02-26T21:12:49;8.30;99.90
9265;DHT22;4669;49.594;10.958;2024-02-26T21:17:51;8.40;99.90
9265;DHT22;4669;49.594;10.958;2024-02-26T21:22:55;8.40;99.90
9265;DHT22;4669;49.594;10.958;2024-02-26T21:27:57;8.30;99.90
9265;DHT22;4669;49.594;10.958;2024-02-26T21:33:00;8.30;99.90
9265;DHT22;4669;49.594;10.958;2024-02-26T21:38:05;8.40;99.90
9265;DHT22;4669;49.594;10.958;2024-02-26T21:43:07;8.30;99.90
9265;DHT22;4669;49.594;10.958;2024-02-26T21:48:09;8.30;99.90
9265;DHT22;4669;49.594;10.958;2024-02-26T21:53:13;8.30;99.90
9265;DHT22;4669;49.594;10.958;2024-02-26T21:58:15;8.30;99.90
9265;DHT22;4669;49.594;10.958;2024-02-26T22:03:17;8.30;99.90
9265;DHT22;4669;49.594;10.958;2024-02-26T22:08:20;8.30;99.90
9265;DHT22;4669;49.594;10.958;2024-02-26T22:13:22;8.20;99.90
9265;DHT22;4669;49.594;10.958;2024-02-26T22:18:24;8.20;99.90
9265;DHT22;4669;49.594;10.958;2024-02-26T22:23:27;8.20;99.90
9265;DHT22;4669;49.594;10.958;2024-02-26T22:28:30;8.20;99.90
9265;DHT22;4669;49.594;10.958;2024-02-26T22:33:32;8.10;99.90
9265;DHT22;4669;49.594;10.958;2024-02-26T22:38:35;8.00;99.90
9265;DHT22;4669;49.594;10.958;2024-02-26T22:43:37;8.00;99.90
9265;DHT22;4669;49.594;10.958;2024-02-26T22:48:39;7.90;99.90
9265;DHT22;4669;49.594;10.958;2024-02-26T22:53:43;7.90;99.90
9265;DHT22;4669;49.594;10.958;2024-02-26T22:58:45;7.90;99.90
